Time;durP1;ratioP1;P1;durP2;ratioP2;P2;SDS_P1;SDS_P2;PMS_P1;PMS_P2;Temp;Humidity;BMP_temperature;BMP_pressure;BME280_temperature;BME280_humidity;BME280_pressure;Samples;Min_cycle;Max_cycle;Signal;HPM_P1;HPM_P2
2022/12/20 00:04:14;;;;;;;40.10;19.97;;;;;;;1.49;100.00;101110.11;5105657;56;1141068;-80
2022/12/20 00:09:19;;;;;;;42.10;18.53;;;;;;;1.49;100.00;101113.58;5129397;56;1141392;-77
2022/12/20 00:14:25;;;;;;;38.80;18.80;;;;;;;1.53;100.00;101116.95;5117518;56;1141019;-77
2022/12/20 00:19:31;;;;;;;47.60;21.13;;;;;;;1.56;100.00;101116.83;5117694;56;1140998;-69
2022/12/20 00:24:37;;;;;;;37.95;17.50;;;;;;;1.60;100.00;101107.56;5137727;56;1140996;-70
2022/12/20 00:29:43;;;;;;;38.47;17.97;;;;;;;1.60;100.00;101114.09;5124323;56;1140938;-74
2022/12/20 00:34:50;;;;;;;38.47;18.67;;;;;;;1.61;100.00;101115.80;5126287;55;1141011;-74
2022/12/20 00:39:55;;;;;;;38.07;19.17;;;;;;;1.63;100.00;101109.23;5146665;55;1141123;-79
2022/12/20 00:45:01;;;;;;;42.77;19.33;;;;;;;1.63;100.00;101097.05;5126418;55;1140911;-71
2022/12/20 00:50:08;;;;;;;37.20;18.43;;;;;;;1.64;100.00;101083.56;5126505;55;1140948;-79
2022/12/20 00:55:13;;;;;;;48.97;20.50;;;;;;;1.65;100.00;101099.61;5146297;55;1140875;-74
2022/12/20 01:00:19;;;;;;;41.00;19.97;;;;;;;1.64;100.00;101082.27;5126333;55;1140853;-72
2022/12/20 01:05:25;;;;;;;43.77;19.27;;;;;;;1.62;100.00;101079.70;5126162;55;1140936;-71
2022/12/20 01:10:32;;;;;;;45.43;20.30;;;;;;;1.66;100.00;101081.31;5145980;56;1141047;-76
2022/12/20 01:15:38;;;;;;;48.55;20.40;;;;;;;1.66;100.00;101080.46;5126374;56;1140848;-78
2022/12/20 01:20:44;;;;;;;33.93;16.60;;;;;;;1.69;100.00;101079.03;5126759;56;1140991;-76
2022/12/20 01:25:52;;;;;;;35.13;15.55;;;;;;;1.70;100.00;101074.23;5126493;56;1140939;-75
2022/12/20 01:30:57;;;;;;;35.27;18.03;;;;;;;1.70;100.00;101068.56;5146619;56;1141151;-81
2022/12/20 01:36:07;;;;;;;31.93;15.67;;;;;;;1.70;100.00;101054.22;5125368;56;1140971;-74
2022/12/20 01:41:18;;;;;;;39.57;18.07;;;;;;;1.70;100.00;101051.61;5125393;56;1140982;-69
2022/12/20 01:46:27;;;;;;;40.47;20.27;;;;;;;1.72;100.00;101068.06;5144956;56;1140956;-76
2022/12/20 01:51:37;;;;;;;44.53;20.07;;;;;;;1.72;100.00;101062.00;5125149;56;1141429;-74
2022/12/20 01:56:48;;;;;;;39.00;20.35;;;;;;;1.71;100.00;101055.08;5124493;56;1141041;-73
2022/12/20 02:01:53;;;;;;;42.53;19.80;;;;;;;1.69;100.00;101052.96;5126090;55;1141111;-72
2022/12/20 02:07:02;;;;;;;39.90;16.97;;;;;;;1.67;100.00;101049.12;5146567;56;1141125;-70
2022/12/20 02:12:20;;;;;;;36.90;18.00;;;;;;;1.68;100.00;101033.03;5089214;56;1140921;-80
2022/12/20 02:17:40;;;;;;;37.03;19.43;;;;;;;1.66;100.00;101026.56;5114903;56;1140991;-79
2022/12/20 02:23:35;;;;;;;49.07;20.27;;;;;;;1.64;100.00;101030.97;5097120;56;1140912;-80
2022/12/20 02:28:57;;;;;;;37.30;15.88;;;;;;;1.64;100.00;101032.73;5115623;56;1141123;-75
2022/12/20 02:34:06;;;;;;;42.73;18.53;;;;;;;1.65;100.00;101032.68;5187821;55;1141112;-73
2022/12/20 02:39:16;;;;;;;38.57;18.27;;;;;;;1.66;100.00;101029.17;5042824;57;1140963;-71
2022/12/20 02:49:51;;;;;;;44.85;19.23;;;;;;;1.66;100.00;101009.62;5216501;55;1141052;-72
2022/12/20 02:54:57;;;;;;;31.70;15.13;;;;;;;1.65;100.00;101018.34;5236991;55;1140793;-71
2022/12/20 03:00:13;;;;;;;42.70;20.77;;;;;;;1.66;100.00;101016.14;5119015;55;1140935;-70
2022/12/20 03:05:23;;;;;;;31.35;15.98;;;;;;;1.67;100.00;101019.15;5114888;55;1141225;-78
2022/12/20 03:10:29;;;;;;;41.57;19.67;;;;;;;1.68;100.00;101023.91;5135523;55;1140911;-76
2022/12/20 03:15:35;;;;;;;37.73;18.10;;;;;;;1.69;100.00;101031.66;5115854;55;1141165;-76
2022/12/20 03:20:43;;;;;;;31.63;14.97;;;;;;;1.68;100.00;101035.16;5115613;55;1141137;-76
2022/12/20 03:25:48;;;;;;;40.95;18.52;;;;;;;1.70;100.00;101024.69;5115162;56;1140940;-77
2022/12/20 03:30:56;;;;;;;31.60;13.90;;;;;;;1.73;100.00;101012.86;5134012;56;1141046;-79
2022/12/20 03:36:02;;;;;;;32.83;15.13;;;;;;;1.74;100.00;101012.81;5115450;55;1140978;-78
2022/12/20 03:41:10;;;;;;;41.07;19.60;;;;;;;1.74;100.00;101019.78;5115132;55;1140844;-71
2022/12/20 03:46:17;;;;;;;32.17;13.13;;;;;;;1.74;100.00;101010.20;5135332;55;1140842;-77
2022/12/20 03:51:22;;;;;;;38.13;16.90;;;;;;;1.74;100.00;101024.55;5114972;55;1140873;-79
2022/12/20 03:56:28;;;;;;;32.63;15.60;;;;;;;1.76;100.00;101008.84;5114399;56;1141064;-73
2022/12/20 04:01:35;;;;;;;35.73;16.63;;;;;;;1.78;100.00;101010.11;5134487;56;1140992;-74
2022/12/20 04:06:42;;;;;;;38.83;17.00;;;;;;;1.80;100.00;101004.39;5115405;55;1141080;-77
2022/12/20 04:11:48;;;;;;;34.60;15.53;;;;;;;1.81;100.00;101010.01;5115477;55;1141072;-79
2022/12/20 04:16:54;;;;;;;42.55;19.15;;;;;;;1.85;100.00;101007.22;5135055;55;1140838;-72
2022/12/20 04:22:00;;;;;;;33.40;16.77;;;;;;;1.87;100.00;100998.05;5115189;55;1140865;-76
2022/12/20 04:27:08;;;;;;;40.10;18.50;;;;;;;1.88;100.00;101009.73;5114570;56;1140966;-74
2022/12/20 04:32:14;;;;;;;32.23;16.83;;;;;;;1.89;100.00;101015.35;5134979;55;1141015;-77
2022/12/20 04:37:22;;;;;;;32.40;13.50;;;;;;;1.92;100.00;101015.25;5115371;55;1141000;-78
2022/12/20 04:42:30;;;;;;;31.20;14.23;;;;;;;1.95;100.00;101012.55;5115296;55;1140888;-74
2022/12/20 04:47:36;;;;;;;35.50;17.23;;;;;;;2.02;100.00;101024.91;5135312;55;1141041;-76
2022/12/20 04:58:08;;;;;;;34.67;16.70;;;;;;;2.02;100.00;101015.33;4986620;57;1141182;-77
2022/12/20 05:03:15;;;;;;;32.17;16.30;;;;;;;2.04;100.00;101013.97;5142821;55;1140806;-73
2022/12/20 05:08:21;;;;;;;32.85;16.70;;;;;;;2.03;100.00;101006.59;5119032;55;1140861;-81
2022/12/20 05:13:29;;;;;;;39.70;16.10;;;;;;;2.03;100.00;101007.05;5114642;55;1141038;-74
2022/12/20 05:18:36;;;;;;;36.77;16.25;;;;;;;2.04;100.00;101013.52;5124807;56;1141271;-75
2022/12/20 05:29:07;;;;;;;34.73;18.13;;;;;;;2.03;100.00;101013.13;5212395;55;1140965;-81
2022/12/20 05:34:14;;;;;;;34.80;15.43;;;;;;;2.04;100.00;100997.87;5184182;55;1141046;-69
2022/12/20 05:39:21;;;;;;;32.73;16.20;;;;;;;2.04;100.00;100999.17;5124789;56;1141390;-77
2022/12/20 05:44:27;;;;;;;36.33;17.83;;;;;;;2.06;100.00;100993.91;5124859;56;1140890;-75
2022/12/20 05:49:36;;;;;;;35.43;17.77;;;;;;;2.08;100.00;101005.14;5133680;56;1141178;-73
2022/12/20 05:54:43;;;;;;;38.10;17.90;;;;;;;2.06;100.00;100989.99;5110064;56;1140930;-79
2022/12/20 05:59:53;;;;;;;29.17;15.03;;;;;;;2.05;100.00;101005.24;5129125;55;1140957;-75
2022/12/20 06:05:01;;;;;;;29.30;15.73;;;;;;;2.05;100.00;101007.85;5191909;55;1140968;-72
2022/12/20 06:10:10;;;;;;;31.10;15.53;;;;;;;2.01;100.00;101014.07;5125698;56;1140941;-73
2022/12/20 06:15:17;;;;;;;31.63;15.07;;;;;;;1.97;100.00;101025.55;5123411;56;1140847;-74
2022/12/20 06:20:23;;;;;;;33.57;14.93;;;;;;;1.93;100.00;101033.06;5169910;55;1141051;-77
2022/12/20 06:25:30;;;;;;;30.20;15.90;;;;;;;1.98;100.00;101022.03;5186550;55;1140997;-81
2022/12/20 06:30:37;;;;;;;27.37;11.03;;;;;;;1.99;100.00;101017.18;5190366;55;1141108;-80
2022/12/20 06:35:44;;;;;;;30.23;12.70;;;;;;;2.00;100.00;101009.76;5111260;55;1141185;-79
2022/12/20 06:40:52;;;;;;;35.40;18.37;;;;;;;2.00;100.00;101008.00;5135007;55;1140871;-75
2022/12/20 06:45:58;;;;;;;36.97;18.40;;;;;;;2.01;100.00;101000.58;5113880;56;1140838;-70
2022/12/20 06:51:03;;;;;;;35.20;16.90;;;;;;;2.03;100.00;101003.14;5113973;56;1140811;-74
2022/12/20 06:56:17;;;;;;;36.70;16.97;;;;;;;2.06;100.00;101003.04;5159006;55;1140889;-77
2022/12/20 07:01:19;;;;;;;31.50;15.80;;;;;;;2.08;100.00;101014.27;5136130;55;1141024;-74
2022/12/20 07:06:27;;;;;;;34.45;16.23;;;;;;;2.10;100.00;101006.80;5005628;57;1141060;-82
2022/12/20 07:11:32;;;;;;;33.43;15.47;;;;;;;2.13;100.00;100995.86;5134109;56;1140960;-81
2022/12/20 07:16:40;;;;;;;39.67;18.63;;;;;;;2.17;100.00;100998.28;5114192;56;1140948;-72
2022/12/20 07:21:47;;;;;;;36.23;16.00;;;;;;;2.19;100.00;100993.88;5120601;55;1141022;-79
2022/12/20 07:26:53;;;;;;;37.10;16.30;;;;;;;2.20;100.00;100996.03;5200937;55;1141132;-82
2022/12/20 07:31:58;;;;;;;30.03;13.30;;;;;;;2.22;100.00;101010.73;5212627;55;1140994;-70
2022/12/20 07:37:05;;;;;;;30.13;14.57;;;;;;;2.25;100.00;101013.69;5123425;55;1140870;-79
2022/12/20 07:42:12;;;;;;;36.42;16.10;;;;;;;2.28;100.00;101023.58;5028267;57;1140895;-77
2022/12/20 07:47:20;;;;;;;35.03;16.67;;;;;;;2.31;100.00;101026.50;5221145;55;1140850;-79
2022/12/20 07:52:29;;;;;;;36.17;16.77;;;;;;;2.34;100.00;101022.03;5028063;57;1140915;-67
2022/12/20 07:57:48;;;;;;;42.07;18.53;;;;;;;2.38;100.00;101021.02;5135143;55;1140823;-69
2022/12/20 08:03:07;;;;;;;36.00;19.17;;;;;;;2.41;100.00;101039.19;5048047;56;1141085;-66
2022/12/20 08:08:13;;;;;;;32.50;16.43;;;;;;;2.47;100.00;101039.41;5133546;56;1140851;-68
2022/12/20 08:13:20;;;;;;;48.30;25.33;;;;;;;2.50;100.00;101032.77;5113900;56;1140860;-67
2022/12/20 08:18:25;;;;;;;50.13;24.90;;;;;;;2.52;100.00;101023.59;5113611;56;1140953;-70
2022/12/20 08:23:31;;;;;;;42.40;18.97;;;;;;;2.57;100.00;101022.52;5133558;56;1140917;-70
2022/12/20 08:28:38;;;;;;;63.43;31.53;;;;;;;2.62;100.00;101032.77;5113475;56;1141012;-68
2022/12/20 08:33:44;;;;;;;45.83;20.90;;;;;;;2.65;100.00;101038.75;5130754;55;1141255;-67
2022/12/20 08:38:50;;;;;;;32.27;16.53;;;;;;;2.69;100.00;101042.95;5028564;57;1141086;-67
2022/12/20 08:43:56;;;;;;;49.45;23.27;;;;;;;2.73;100.00;101033.25;5221422;55;1140928;-67
2022/12/20 08:49:03;;;;;;;41.30;20.67;;;;;;;2.76;100.00;101026.13;5028173;57;1140921;-70
2022/12/20 08:54:08;;;;;;;38.53;18.23;;;;;;;2.77;100.00;101014.78;5192887;55;1194944;-70
2022/12/20 08:59:15;;;;;;;45.77;18.87;;;;;;;2.81;100.00;101007.23;5047943;57;1140977;-69
2022/12/20 09:04:21;;;;;;;31.02;15.10;;;;;;;2.86;100.00;101004.45;5118554;55;1140866;-70
2022/12/20 09:09:27;;;;;;;42.77;18.30;;;;;;;2.90;100.00;101015.65;5126627;56;1244157;-70
2022/12/20 09:14:33;;;;;;;40.90;19.07;;;;;;;2.93;100.00;101028.11;5113535;56;1141078;-69
2022/12/20 09:19:40;;;;;;;44.53;19.15;;;;;;;2.95;100.00;101022.38;5129121;56;1140955;-71
2022/12/20 09:24:45;;;;;;;35.90;17.65;;;;;;;2.99;100.00;101029.66;5156553;55;1141071;-67
2022/12/20 09:29:51;;;;;;;41.40;18.87;;;;;;;3.02;100.00;101016.02;5028528;57;1140981;-69
2022/12/20 09:34:57;;;;;;;35.30;17.52;;;;;;;3.05;100.00;100992.85;5145380;55;1238172;-67
2022/12/20 09:40:03;;;;;;;46.47;22.93;;;;;;;3.10;100.00;100991.73;5140616;55;1140943;-71
2022/12/20 09:45:11;;;;;;;40.50;18.27;;;;;;;3.18;100.00;100990.14;5145864;55;1141002;-70
2022/12/20 09:50:20;;;;;;;37.27;17.93;;;;;;;3.25;100.00;100998.58;5196504;55;1140983;-73
2022/12/20 09:55:36;;;;;;;48.87;22.20;;;;;;;3.33;100.00;100999.98;5186142;55;1141112;-75
2022/12/20 10:00:47;;;;;;;43.08;20.45;;;;;;;3.40;100.00;101000.13;5200418;55;1149292;-78
2022/12/20 10:06:00;;;;;;;41.60;18.77;;;;;;;3.44;100.00;100996.48;5132683;56;1140882;-73
2022/12/20 10:11:13;;;;;;;38.70;20.17;;;;;;;3.48;100.00;101001.13;5125603;56;1140874;-83
2022/12/20 10:16:41;;;;;;;38.98;20.00;;;;;;;3.49;100.00;100977.55;5129454;55;1140997;-74
2022/12/20 10:22:05;;;;;;;36.17;17.67;;;;;;;3.49;100.00;100977.55;5122520;55;1140951;-74
2022/12/20 10:27:20;;;;;;;34.30;16.30;;;;;;;3.47;100.00;100990.28;5145924;56;1140816;-77
2022/12/20 10:32:27;;;;;;;43.07;20.67;;;;;;;3.46;100.00;100978.97;5124254;55;1140956;-71
2022/12/20 10:37:32;;;;;;;40.87;22.10;;;;;;;3.46;100.00;100968.97;5122061;56;1140912;-75
2022/12/20 10:42:42;;;;;;;42.55;20.00;;;;;;;3.48;100.00;100966.69;5150809;56;1140853;-79
2022/12/20 10:47:50;;;;;;;40.92;19.52;;;;;;;3.46;100.00;100981.58;5129415;55;1141012;-78
2022/12/20 10:53:20;;;;;;;45.80;21.00;;;;;;;3.48;100.00;100981.52;5128536;56;1200742;-72
2022/12/20 10:58:35;;;;;;;41.97;19.70;;;;;;;3.49;100.00;100977.55;5150150;56;1141252;-75
2022/12/20 11:04:09;;;;;;;44.55;20.02;;;;;;;3.53;100.00;100972.55;5189904;55;1141155;-73
2022/12/20 11:09:34;;;;;;;45.80;21.53;;;;;;;3.59;100.00;100966.69;5138881;55;1140973;-72
2022/12/20 11:14:42;;;;;;;78.23;36.77;;;;;;;3.63;100.00;100965.20;5130407;55;1141123;-77
2022/12/20 11:20:13;;;;;;;53.70;24.52;;;;;;;3.64;100.00;100954.28;5129983;56;1156865;-74
2022/12/20 11:25:29;;;;;;;53.73;23.47;;;;;;;3.67;100.00;100963.28;5171649;55;1231293;-75
2022/12/20 11:31:03;;;;;;;55.50;23.73;;;;;;;3.69;100.00;100959.69;5129726;56;1140935;-84
2022/12/20 11:36:34;;;;;;;45.85;22.02;;;;;;;3.73;100.00;100947.34;5125089;56;1141033;-76
2022/12/20 11:41:48;;;;;;;45.45;19.77;;;;;;;3.82;100.00;100934.70;5163542;55;1141097;-73
2022/12/20 11:47:04;;;;;;;48.60;19.82;;;;;;;3.89;100.00;100926.14;5165799;55;1141059;-73
2022/12/20 11:52:38;;;;;;;45.30;21.87;;;;;;;3.97;100.00;100918.83;5211652;55;1141058;-71
2022/12/20 11:57:55;;;;;;;44.10;22.20;;;;;;;4.01;100.00;100916.45;5207757;55;1141125;-76
2022/12/20 12:03:18;;;;;;;46.60;22.87;;;;;;;4.05;100.00;100910.63;5155625;55;1141013;-73
2022/12/20 12:08:38;;;;;;;42.10;21.33;;;;;;;4.06;100.00;100905.78;5163779;55;1140753;-78
2022/12/20 12:13:45;;;;;;;43.83;21.13;;;;;;;4.08;100.00;100902.64;5157702;55;1140862;-71
2022/12/20 12:18:51;;;;;;;48.28;22.37;;;;;;;4.08;100.00;100902.64;5186481;55;1186556;-75
2022/12/20 12:24:19;;;;;;;53.90;22.20;;;;;;;4.07;100.00;100896.55;5153814;55;1140871;-80
2022/12/20 12:29:26;;;;;;;38.07;18.57;;;;;;;4.08;100.00;100894.33;5144438;55;1140895;-77
2022/12/20 12:34:58;;;;;;;46.07;22.10;;;;;;;4.11;100.00;100884.19;5168437;55;1244463;-76
2022/12/20 12:40:15;;;;;;;45.20;22.83;;;;;;;4.13;100.00;100884.48;5116704;55;1140974;-66
2022/12/20 12:45:28;;;;;;;48.13;21.87;;;;;;;4.16;100.00;100892.20;5139540;55;1140984;-82
2022/12/20 12:50:41;;;;;;;46.93;21.80;;;;;;;4.17;100.00;100881.27;5086321;55;1140815;-77
2022/12/20 12:55:53;;;;;;;47.62;23.92;;;;;;;4.15;100.00;100875.25;5113817;56;1140816;-72
2022/12/20 13:01:10;;;;;;;57.20;24.83;;;;;;;4.12;100.00;100870.19;5117765;55;1249407;-73
2022/12/20 13:06:29;;;;;;;48.53;23.83;;;;;;;4.12;100.00;100859.26;5134236;55;1141538;-80
2022/12/20 13:11:43;;;;;;;44.67;22.90;;;;;;;4.11;100.00;100851.02;5113062;55;1178289;-78
2022/12/20 13:16:50;;;;;;;;;;;;;;;4.09;100.00;100854.16;5118858;55;1141206;-70
2022/12/20 13:22:15;;;;;;;49.53;24.47;;;;;;;4.09;100.00;100855.47;5116178;55;974188;-77
2022/12/20 13:27:40;;;;;;;54.37;23.97;;;;;;;4.14;100.00;100857.39;5182510;55;1138930;-67
2022/12/20 13:32:57;;;;;;;45.60;23.13;;;;;;;4.23;100.00;100847.83;5069061;56;1140998;-72
2022/12/20 13:38:05;;;;;;;49.25;23.12;;;;;;;4.30;100.00;100852.30;5113706;55;1141203;-79
2022/12/20 13:43:26;;;;;;;38.40;19.93;;;;;;;4.31;100.00;100846.60;5134317;55;1141722;-75
2022/12/20 13:48:39;;;;;;;51.60;26.17;;;;;;;4.31;100.00;100850.07;4998159;57;1141346;-80
2022/12/20 13:54:00;;;;;;;48.40;21.97;;;;;;;4.31;100.00;100852.69;5180752;55;1141330;-71
2022/12/20 13:59:26;;;;;;;47.77;25.17;;;;;;;4.32;100.00;100850.47;5028775;57;1141136;-80
2022/12/20 14:04:45;;;;;;;54.10;25.33;;;;;;;4.28;100.00;100844.16;5134456;55;1141138;-80
2022/12/20 14:10:02;;;;;;;55.03;23.73;;;;;;;4.22;100.00;100837.42;5115869;55;1140913;-72
2022/12/20 14:15:16;;;;;;;67.97;32.23;;;;;;;4.17;100.00;100836.31;5112529;55;1235297;-70
2022/12/20 14:20:27;;;;;;;136.23;45.70;;;;;;;4.14;100.00;100812.89;5185009;55;1141013;-69
2022/12/20 14:25:51;;;;;;;58.85;24.80;;;;;;;4.11;100.00;100817.44;5114202;55;1154793;-78
2022/12/20 14:30:58;;;;;;;;;;;;;;;4.07;100.00;100817.19;5117539;56;1205746;-77
2022/12/20 14:36:21;;;;;;;45.87;21.53;;;;;;;4.02;100.00;100820.01;5217429;55;974371;-82
2022/12/20 14:41:39;;;;;;;51.13;23.07;;;;;;;3.96;100.00;100836.47;5150917;55;1139096;-70
2022/12/20 14:47:02;;;;;;;59.83;28.23;;;;;;;3.93;100.00;100815.20;5118087;56;1141054;-80
2022/12/20 14:52:19;;;;;;;60.90;28.73;;;;;;;3.88;100.00;100802.32;5105378;55;1140837;-82
2022/12/20 14:57:32;;;;;;;50.57;23.97;;;;;;;3.85;100.00;100784.14;5188803;55;1140964;-74
2022/12/20 15:03:12;;;;;;;48.63;23.32;;;;;;;3.83;100.00;100770.27;5157444;55;1140897;-82
2022/12/20 15:08:34;;;;;;;53.13;22.97;;;;;;;3.83;100.00;100776.81;4979923;57;1140941;-84
2022/12/20 15:13:45;;;;;;;50.90;23.60;;;;;;;3.81;100.00;100780.45;5119672;56;1140924;-74
2022/12/20 15:19:00;;;;;;;50.45;25.88;;;;;;;3.79;100.00;100787.05;5126631;56;1141183;-69
2022/12/20 15:24:10;;;;;;;53.70;25.53;;;;;;;3.78;100.00;100785.35;5191442;55;1141089;-72
2022/12/20 15:29:26;;;;;;;50.83;21.67;;;;;;;3.75;100.00;100784.18;5126031;56;1140806;-76
2022/12/20 15:34:38;;;;;;;53.07;24.47;;;;;;;3.75;100.00;100778.95;5179659;55;1140921;-72
2022/12/20 15:39:44;;;;;;;49.03;22.77;;;;;;;3.75;100.00;100772.41;5207219;55;1140940;-72
2022/12/20 15:44:50;;;;;;;59.60;26.67;;;;;;;3.75;100.00;100777.64;5045255;57;1141033;-74
2022/12/20 15:49:56;;;;;;;71.27;30.93;;;;;;;3.74;100.00;100772.02;5154251;55;1140994;-78
2022/12/20 15:55:01;;;;;;;74.43;34.10;;;;;;;3.73;100.00;100765.54;5199473;55;1141048;-75
2022/12/20 16:00:09;;;;;;;195.60;78.57;;;;;;;3.75;100.00;100754.09;5049074;57;1140919;-75
2022/12/20 16:05:17;;;;;;;187.13;67.03;;;;;;;3.76;100.00;100754.95;5115723;55;1143168;-76
2022/12/20 16:10:23;;;;;;;164.60;61.47;;;;;;;3.78;100.00;100753.11;5115159;55;1143235;-73
2022/12/20 16:15:29;;;;;;;88.40;33.23;;;;;;;3.78;100.00;100756.58;5136570;55;1142966;-71
2022/12/20 16:20:35;;;;;;;122.33;44.60;;;;;;;3.78;100.00;100762.27;5114512;56;1141002;-73
2022/12/20 16:25:41;;;;;;;111.40;42.27;;;;;;;3.77;100.00;100757.95;5114992;55;1143430;-78
2022/12/20 16:30:47;;;;;;;100.65;39.83;;;;;;;3.77;100.00;100763.19;5124903;56;1143274;-76
2022/12/20 16:35:53;;;;;;;133.37;52.15;;;;;;;3.81;100.00;100773.91;5181687;55;1142940;-69
2022/12/20 16:41:18;;;;;;;83.40;37.30;;;;;;;3.82;100.00;100761.19;5129183;55;1143027;-79
2022/12/20 16:46:28;;;;;;;123.53;53.37;;;;;;;3.84;100.00;100754.97;5132176;55;1140978;-80
2022/12/20 16:51:43;;;;;;;158.23;75.73;;;;;;;3.88;100.00;100732.14;5154315;55;1143185;-71
2022/12/20 16:56:58;;;;;;;79.77;37.37;;;;;;;3.88;100.00;100732.14;5115027;55;1149274;-76
2022/12/20 17:02:00;;;;;;;61.37;25.60;;;;;;;3.85;100.00;100734.43;5114251;55;1140934;-75
2022/12/20 17:07:06;;;;;;;81.40;37.27;;;;;;;3.83;100.00;100732.34;5147365;55;1140990;-72
2022/12/20 17:12:18;;;;;;;139.33;58.70;;;;;;;3.83;100.00;100735.41;5027700;57;1140890;-70
2022/12/20 17:17:24;;;;;;;106.77;45.30;;;;;;;3.77;100.00;100726.56;5200829;55;1143062;-81
2022/12/20 17:22:29;;;;;;;72.50;34.53;;;;;;;3.75;100.00;100740.16;5202288;55;1143135;-76
2022/12/20 17:27:35;;;;;;;76.90;33.70;;;;;;;3.72;100.00;100724.61;5114680;56;1141094;-71
2022/12/20 17:32:41;;;;;;;67.97;30.43;;;;;;;3.69;100.00;100720.36;5114688;55;1140964;-75
2022/12/20 17:37:50;;;;;;;320.37;97.23;;;;;;;3.70;100.00;100715.98;5114794;56;1140996;-74
2022/12/20 17:42:56;;;;;;;129.10;41.93;;;;;;;3.66;100.00;100723.14;5134270;56;1148474;-80
2022/12/20 17:48:01;;;;;;;91.15;35.20;;;;;;;3.67;100.00;100706.95;5114378;55;1143183;-74
2022/12/20 17:53:09;;;;;;;87.17;33.10;;;;;;;3.67;100.00;100709.58;5114556;55;1140891;-80
2022/12/20 17:58:14;;;;;;;125.13;52.80;;;;;;;3.64;100.00;100704.52;5135019;55;1141038;-74
2022/12/20 18:03:21;;;;;;;437.18;165.00;;;;;;;3.65;100.00;100693.98;5114114;56;1143279;-76
2022/12/20 18:08:27;;;;;;;140.23;57.87;;;;;;;3.65;100.00;100695.28;5114637;55;1145271;-74
2022/12/20 18:13:32;;;;;;;235.00;96.60;;;;;;;3.65;100.00;100670.44;5135342;55;1143039;-76
2022/12/20 18:18:39;;;;;;;123.03;49.13;;;;;;;3.67;100.00;100687.34;5115642;55;1142968;-79
2022/12/20 18:23:46;;;;;;;121.30;37.53;;;;;;;3.69;100.00;100667.20;5115055;55;1143122;-71
2022/12/20 18:29:01;;;;;;;120.35;37.75;;;;;;;3.66;100.00;100677.37;5092776;56;1143234;-82
2022/12/20 18:34:07;;;;;;;150.37;42.40;;;;;;;3.64;100.00;100664.82;5174616;55;1143257;-76
2022/12/20 18:39:13;;;;;;;198.00;62.23;;;;;;;3.65;100.00;100680.91;5029384;57;1143247;-78
2022/12/20 18:44:20;;;;;;;158.07;50.77;;;;;;;3.65;100.00;100661.29;5201851;55;1143210;-70
2022/12/20 18:49:26;;;;;;;137.40;52.73;;;;;;;3.65;100.00;100678.75;5020006;57;1143306;-73
2022/12/20 18:54:32;;;;;;;139.83;53.80;;;;;;;3.67;100.00;100662.03;4944309;57;1143358;-81
2022/12/20 18:59:38;;;;;;;93.07;37.07;;;;;;;3.67;100.00;100658.57;5110254;56;1142971;-75
2022/12/20 19:04:45;;;;;;;89.03;39.83;;;;;;;3.67;100.00;100665.96;5132203;56;1141519;-76
2022/12/20 19:09:51;;;;;;;74.80;29.90;;;;;;;3.66;100.00;100659.52;5118014;56;1141165;-71
2022/12/20 19:14:57;;;;;;;131.77;48.63;;;;;;;3.65;100.00;100646.91;5114837;56;1141156;-82
2022/12/20 19:20:03;;;;;;;132.25;45.78;;;;;;;3.67;100.00;100637.19;5114850;56;1143013;-72
2022/12/20 19:25:10;;;;;;;130.30;49.63;;;;;;;3.67;100.00;100646.34;5139246;55;1143058;-76
2022/12/20 19:30:15;;;;;;;64.13;24.77;;;;;;;3.71;100.00;100639.20;5117156;55;1143048;-77
2022/12/20 19:35:22;;;;;;;114.33;45.33;;;;;;;3.70;100.00;100655.81;5121640;55;1141045;-75
2022/12/20 19:40:28;;;;;;;125.73;53.57;;;;;;;3.72;100.00;100645.68;5135059;55;1143118;-78
2022/12/20 19:45:38;;;;;;;121.43;48.07;;;;;;;3.73;100.00;100643.45;5111895;55;1143189;-72
2022/12/20 19:50:44;;;;;;;76.33;30.47;;;;;;;3.74;100.00;100645.61;5114735;55;1142965;-73
2022/12/20 19:55:53;;;;;;;68.73;30.17;;;;;;;3.74;100.00;100650.84;5113993;56;1200189;-75
2022/12/20 20:00:59;;;;;;;66.57;28.90;;;;;;;3.71;100.00;100654.45;5135354;56;1141054;-80
2022/12/20 20:06:07;;;;;;;71.22;31.57;;;;;;;3.69;100.00;100661.52;5151311;55;1140938;-78
2022/12/20 20:11:13;;;;;;;70.40;31.10;;;;;;;3.71;100.00;100653.59;5145809;55;1140923;-75
2022/12/20 20:16:20;;;;;;;63.70;25.00;;;;;;;3.68;100.00;100655.89;5049359;56;1141232;-73
2022/12/20 20:21:26;;;;;;;62.80;25.50;;;;;;;3.61;100.00;100645.80;5114507;56;1140919;-85
2022/12/20 20:26:33;;;;;;;68.43;30.30;;;;;;;3.65;100.00;100636.44;5121362;55;1141143;-68
2022/12/20 20:31:39;;;;;;;58.17;25.60;;;;;;;3.62;100.00;100639.20;5133108;56;1141012;-76
2022/12/20 20:36:45;;;;;;;61.50;25.27;;;;;;;3.59;100.00;100637.17;5115854;55;1140846;-79
2022/12/20 20:41:52;;;;;;;71.44;29.88;;;;;;;3.60;100.00;100629.72;5105382;55;1141146;-79
2022/12/20 20:46:58;;;;;;;68.70;28.87;;;;;;;3.56;100.00;100636.86;5135457;55;1141024;-84
2022/12/20 20:52:03;;;;;;;59.50;25.35;;;;;;;3.56;100.00;100628.16;5115699;55;1140983;-73
2022/12/20 20:57:09;;;;;;;68.83;24.93;;;;;;;3.50;100.00;100625.39;5115930;55;1141059;-75
2022/12/20 21:02:15;;;;;;;58.97;26.53;;;;;;;3.47;100.00;100632.91;5159209;55;1140951;-73
2022/12/20 21:07:22;;;;;;;59.37;25.53;;;;;;;3.48;100.00;100627.23;5052591;56;1140972;-77
2022/12/20 21:12:29;;;;;;;61.63;28.23;;;;;;;3.47;100.00;100629.45;5121559;55;1141246;-77
2022/12/20 21:17:35;;;;;;;111.97;48.50;;;;;;;3.48;100.00;100620.23;5136004;55;1141035;-85
2022/12/20 21:22:41;;;;;;;61.30;27.17;;;;;;;3.46;100.00;100619.91;5137100;55;1142832;-75
2022/12/20 21:27:47;;;;;;;53.70;23.77;;;;;;;3.40;100.00;100633.25;5119146;55;1141330;-75
2022/12/20 21:32:53;;;;;;;57.88;25.10;;;;;;;3.40;100.00;100620.19;5161558;55;1141068;-81
2022/12/20 21:38:00;;;;;;;54.35;25.88;;;;;;;3.35;100.00;100603.43;5121144;56;1140819;-80
2022/12/20 21:43:06;;;;;;;51.73;24.40;;;;;;;3.34;100.00;100603.50;5147354;55;1140907;-79
2022/12/20 21:48:11;;;;;;;46.43;21.50;;;;;;;3.34;100.00;100591.27;5170554;55;1140776;-78
2022/12/20 21:53:17;;;;;;;62.77;25.20;;;;;;;3.32;100.00;100593.11;5079969;55;1141026;-68
2022/12/20 21:58:24;;;;;;;54.03;23.80;;;;;;;3.36;100.00;100583.36;5044155;56;1141124;-76
2022/12/20 22:03:30;;;;;;;39.20;18.20;;;;;;;3.38;100.00;100578.88;5094619;56;1140896;-76
2022/12/20 22:08:36;;;;;;;52.80;23.80;;;;;;;3.37;100.00;100579.34;5110954;56;1141060;-76
2022/12/20 22:13:43;;;;;;;57.17;25.40;;;;;;;3.42;100.00;100583.06;5044210;56;1141147;-71
2022/12/20 22:18:54;;;;;;;51.87;23.40;;;;;;;3.46;100.00;100578.08;5043936;57;1141112;-79
2022/12/20 22:24:01;;;;;;;51.70;23.37;;;;;;;3.46;100.00;100566.31;5072555;56;1141138;-73
2022/12/20 22:29:08;;;;;;;46.23;21.07;;;;;;;3.46;100.00;100560.62;5144240;56;1141407;-77
2022/12/20 22:34:14;;;;;;;52.60;25.27;;;;;;;3.49;100.00;100562.25;5115255;56;1141051;-77
2022/12/20 22:39:20;;;;;;;63.30;26.35;;;;;;;3.49;100.00;100562.25;5108201;55;1140990;-76
2022/12/20 22:44:26;;;;;;;57.53;28.83;;;;;;;3.47;100.00;100561.02;5128456;56;1140899;-75
2022/12/20 22:49:32;;;;;;;55.70;26.67;;;;;;;3.48;100.00;100549.64;5147988;55;1140899;-73
2022/12/20 22:54:38;;;;;;;51.77;24.57;;;;;;;3.52;100.00;100547.70;5207386;55;1141091;-75
2022/12/20 22:59:43;;;;;;;73.73;35.63;;;;;;;3.54;100.00;100544.55;5049403;57;1141047;-73
2022/12/20 23:04:50;;;;;;;53.27;25.67;;;;;;;3.54;100.00;100532.79;5201880;55;1141012;-80
2022/12/20 23:09:56;;;;;;;55.40;22.67;;;;;;;3.57;100.00;100535.72;5016971;57;1141219;-77
2022/12/20 23:25:47;;;;;;;49.97;19.10;;;;;;;3.61;100.00;100542.50;5144949;55;974053;-79